createdAt,value
2022-11-26T00:01:18.598Z,32.90
2022-11-26T00:03:47.442Z,32.00
2022-11-26T00:06:31.713Z,34.80
2022-11-26T00:09:00.897Z,33.00
2022-11-26T00:11:29.032Z,29.50
2022-11-26T00:13:57.201Z,30.60
2022-11-26T00:16:25.286Z,29.70
2022-11-26T00:18:53.344Z,30.30
2022-11-26T00:21:24.201Z,31.80
2022-11-26T00:23:53.819Z,38.60
2022-11-26T00:26:24.633Z,35.20
2022-11-26T00:28:56.134Z,37.00
2022-11-26T00:31:25.196Z,38.30
2022-11-26T00:33:53.233Z,39.90
2022-11-26T00:36:27.968Z,46.90
2022-11-26T00:39:15.075Z,49.10
2022-11-26T00:41:48.089Z,49.80
2022-11-26T00:44:19.632Z,57.80
2022-11-26T00:46:49.462Z,44.40
2022-11-26T00:49:18.323Z,35.10
2022-11-26T00:51:47.293Z,33.50
2022-11-26T00:54:18.755Z,36.20
2022-11-26T00:56:48.342Z,34.50
2022-11-26T00:59:22.399Z,31.50
2022-11-26T01:01:50.902Z,33.30
2022-11-26T01:04:19.026Z,36.40
2022-11-26T01:06:47.406Z,35.00
2022-11-26T01:09:21.151Z,32.40
2022-11-26T01:11:53.738Z,32.70
2022-11-26T01:14:23.327Z,31.40
2022-11-26T01:16:53.759Z,30.40
2022-11-26T01:19:22.158Z,29.60
2022-11-26T01:21:50.264Z,30.50
2022-11-26T01:24:18.232Z,28.10
2022-11-26T01:26:46.304Z,28.90
2022-11-26T01:29:18.435Z,29.50
2022-11-26T01:31:46.900Z,27.00
2022-11-26T01:34:15.634Z,29.40
2022-11-26T01:36:44.608Z,37.20
2022-11-26T01:39:19.358Z,32.00
2022-11-26T01:42:05.481Z,30.50
2022-11-26T01:44:37.269Z,29.30
2022-11-26T01:47:25.247Z,28.50
2022-11-26T01:50:30.998Z,29.80
2022-11-26T01:53:16.275Z,35.80
2022-11-26T01:55:53.943Z,30.80
2022-11-26T01:58:28.693Z,32.60
2022-11-26T02:00:57.124Z,30.50
2022-11-26T02:03:26.113Z,32.00
2022-11-26T02:06:08.886Z,29.90
2022-11-26T02:08:37.282Z,28.00
2022-11-26T02:11:23.449Z,30.60
2022-11-26T02:13:55.702Z,34.70
2022-11-26T02:16:42.713Z,35.20
2022-11-26T02:19:44.862Z,33.50
2022-11-26T02:22:25.056Z,32.30
2022-11-26T02:25:12.321Z,30.10
2022-11-26T02:27:55.591Z,29.00
2022-11-26T02:30:23.781Z,30.10
2022-11-26T02:33:02.948Z,27.50
2022-11-26T02:35:54.958Z,26.50
2022-11-26T02:38:25.472Z,25.50
2022-11-26T02:40:53.500Z,27.40
2022-11-26T02:43:22.454Z,27.50
2022-11-26T02:45:56.087Z,28.40
2022-11-26T02:48:29.085Z,27.20
2022-11-26T02:51:02.161Z,26.90
2022-11-26T02:53:32.730Z,30.40
2022-11-26T02:56:15.765Z,33.50
2022-11-26T02:58:44.559Z,33.00
2022-11-26T03:01:19.896Z,31.40
2022-11-26T03:03:51.134Z,34.10
2022-11-26T03:06:20.935Z,35.00
2022-11-26T03:08:49.329Z,44.20
2022-11-26T03:11:17.282Z,36.60
2022-11-26T03:13:45.222Z,35.00
2022-11-26T03:16:13.371Z,35.70
2022-11-26T03:18:41.594Z,33.40
2022-11-26T03:21:09.738Z,33.50
2022-11-26T03:23:37.735Z,31.50
2022-11-26T03:26:05.820Z,28.40
2022-11-26T03:28:33.881Z,29.60
2022-11-26T03:31:02.153Z,30.00
2022-11-26T03:33:30.237Z,28.20
2022-11-26T03:35:58.401Z,29.00
2022-11-26T03:38:26.670Z,28.80
2022-11-26T03:41:03.851Z,30.10
2022-11-26T03:43:31.874Z,30.00
2022-11-26T03:45:59.926Z,31.60
2022-11-26T03:48:27.979Z,34.40
2022-11-26T03:50:56.142Z,33.40
2022-11-26T03:53:24.210Z,40.50
2022-11-26T03:55:52.230Z,40.40
2022-11-26T03:58:20.269Z,36.90
2022-11-26T04:00:48.270Z,34.00
2022-11-26T04:03:16.315Z,37.10
2022-11-26T04:05:44.413Z,36.70
2022-11-26T04:08:12.537Z,34.70
2022-11-26T04:10:40.708Z,36.60
2022-11-26T04:13:08.978Z,33.40
2022-11-26T04:15:37.050Z,34.90
2022-11-26T04:18:05.123Z,35.40
2022-11-26T04:20:33.139Z,34.20
2022-11-26T04:23:01.296Z,35.10
2022-11-26T04:25:29.337Z,36.40
2022-11-26T04:27:58.523Z,33.40
2022-11-26T04:30:26.764Z,33.20
2022-11-26T04:32:55.284Z,31.80
2022-11-26T04:35:23.496Z,31.30
2022-11-26T04:37:51.834Z,31.70
2022-11-26T04:40:20.094Z,31.20
2022-11-26T04:42:48.062Z,33.00
2022-11-26T04:45:16.046Z,33.10
2022-11-26T04:47:44.215Z,33.30
2022-11-26T04:50:12.748Z,35.40
2022-11-26T04:52:40.769Z,36.00
2022-11-26T04:55:09.925Z,33.80
2022-11-26T04:57:37.936Z,31.80
2022-11-26T05:00:07.495Z,34.00
2022-11-26T05:02:35.658Z,31.80
2022-11-26T05:05:03.887Z,30.90
2022-11-26T05:07:32.149Z,28.80
2022-11-26T05:10:00.541Z,29.30
2022-11-26T05:12:28.571Z,30.00
2022-11-26T05:14:56.580Z,31.40
2022-11-26T05:17:24.646Z,29.60
2022-11-26T05:19:52.720Z,31.20
2022-11-26T05:22:20.785Z,30.70
2022-11-26T05:24:48.885Z,30.20
2022-11-26T05:27:17.140Z,31.30
2022-11-26T05:29:45.508Z,32.20
2022-11-26T05:32:13.582Z,33.60
2022-11-26T05:34:41.804Z,37.70
2022-11-26T05:37:10.152Z,35.50
2022-11-26T05:39:38.509Z,35.40
2022-11-26T05:42:09.446Z,34.00
2022-11-26T05:44:38.392Z,33.60
2022-11-26T05:47:06.632Z,34.80
2022-11-26T05:49:34.689Z,35.50
2022-11-26T05:52:02.862Z,34.40
2022-11-26T05:54:31.086Z,32.60
2022-11-26T05:57:00.465Z,34.70
2022-11-26T05:59:28.908Z,34.50
2022-11-26T06:01:57.261Z,34.70
2022-11-26T06:04:25.581Z,36.50
2022-11-26T06:06:53.633Z,40.50
2022-11-26T06:09:21.808Z,41.60
2022-11-26T06:11:50.898Z,40.80
2022-11-26T06:14:19.276Z,43.20
2022-11-26T06:16:47.477Z,41.20
2022-11-26T06:19:15.928Z,58.10
2022-11-26T06:21:43.897Z,47.80
2022-11-26T06:24:12.433Z,42.70
2022-11-26T06:26:40.785Z,36.60
2022-11-26T06:29:08.869Z,35.50
2022-11-26T06:31:36.994Z,35.60
2022-11-26T06:34:05.275Z,36.10
2022-11-26T06:36:33.367Z,36.30
2022-11-26T06:39:01.438Z,34.60
2022-11-26T06:41:29.510Z,38.50
2022-11-26T06:43:59.603Z,39.60
2022-11-26T06:46:28.062Z,36.70
2022-11-26T06:48:56.159Z,35.40
2022-11-26T06:51:27.967Z,37.70
2022-11-26T06:53:56.186Z,36.70
2022-11-26T06:56:24.682Z,37.60
2022-11-26T06:58:55.385Z,37.20
2022-11-26T07:01:26.264Z,34.80
2022-11-26T07:03:55.316Z,34.80
2022-11-26T07:06:28.882Z,35.60
2022-11-26T07:08:59.353Z,38.10
2022-11-26T07:11:27.528Z,36.20
2022-11-26T07:13:55.501Z,36.20
2022-11-26T07:16:23.800Z,38.70
2022-11-26T07:18:59.396Z,38.40
2022-11-26T07:21:29.948Z,37.70
2022-11-26T07:23:58.772Z,37.10
2022-11-26T07:26:26.845Z,35.50
2022-11-26T07:28:54.844Z,37.90
2022-11-26T07:31:23.958Z,39.60
2022-11-26T07:33:52.402Z,37.90
2022-11-26T07:36:24.257Z,39.10
2022-11-26T07:38:56.787Z,45.70
2022-11-26T07:41:25.920Z,42.20
2022-11-26T07:43:54.394Z,41.50
2022-11-26T07:46:24.856Z,47.80
2022-11-26T07:48:54.337Z,48.40
2022-11-26T07:51:26.351Z,46.20
2022-11-26T07:53:54.841Z,45.60
2022-11-26T07:56:22.973Z,42.60
2022-11-26T07:58:52.279Z,41.40
2022-11-26T08:01:23.716Z,40.50
2022-11-26T08:03:52.032Z,42.60
2022-11-26T08:06:23.521Z,45.50
2022-11-26T08:08:51.930Z,43.20
2022-11-26T08:11:31.397Z,43.20
2022-11-26T08:14:07.970Z,40.50
2022-11-26T08:16:36.180Z,41.00
2022-11-26T08:19:08.734Z,40.40
2022-11-26T08:21:37.093Z,38.80
2022-11-26T08:24:07.375Z,39.00
2022-11-26T08:26:39.844Z,38.70
2022-11-26T08:29:13.035Z,39.80
2022-11-26T08:31:45.754Z,38.70
2022-11-26T08:34:16.276Z,42.60
2022-11-26T08:36:45.708Z,43.30
2022-11-26T08:39:17.453Z,45.20
2022-11-26T08:41:51.715Z,44.40
2022-11-26T08:44:20.763Z,42.50
2022-11-26T08:46:49.068Z,44.30
2022-11-26T08:49:18.400Z,47.00
2022-11-26T08:51:46.827Z,41.80
2022-11-26T08:54:15.085Z,43.00
2022-11-26T08:56:43.311Z,40.60
2022-11-26T08:59:11.635Z,40.10
2022-11-26T09:01:40.583Z,38.60
2022-11-26T09:04:08.722Z,44.40
2022-11-26T09:06:37.292Z,43.40
2022-11-26T09:09:15.744Z,44.10
2022-11-26T09:11:50.634Z,41.10
2022-11-26T09:14:21.775Z,39.80
2022-11-26T09:16:50.027Z,38.70
2022-11-26T09:19:18.853Z,41.30
2022-11-26T09:21:47.617Z,41.70
2022-11-26T09:24:17.304Z,41.50
2022-11-26T09:26:46.258Z,39.00
2022-11-26T09:29:16.652Z,40.80
2022-11-26T09:32:15.469Z,39.20
2022-11-26T09:34:33.978Z,42.10
2022-11-26T09:37:02.468Z,40.40
2022-11-26T09:39:30.680Z,41.50
2022-11-26T09:42:24.585Z,40.90
2022-11-26T09:45:08.140Z,43.90
2022-11-26T09:47:46.299Z,43.50
2022-11-26T09:50:14.313Z,42.40
2022-11-26T09:52:55.820Z,42.00
2022-11-26T09:55:31.430Z,44.10
2022-11-26T09:58:26.745Z,53.50
2022-11-26T10:00:59.079Z,50.50
2022-11-26T10:03:30.383Z,49.00
2022-11-26T10:06:14.468Z,46.70
2022-11-26T10:09:10.543Z,52.40
2022-11-26T10:12:06.186Z,47.50
2022-11-26T10:14:58.396Z,61.50
2022-11-26T10:17:47.681Z,64.10
2022-11-26T10:20:43.537Z,62.90
2022-11-26T10:23:11.557Z,52.70
2022-11-26T10:25:49.979Z,56.60
2022-11-26T10:28:26.968Z,62.90
2022-11-26T10:31:00.930Z,51.60
2022-11-26T10:33:33.126Z,56.20
2022-11-26T10:36:01.928Z,48.20
2022-11-26T10:38:29.984Z,49.60
2022-11-26T10:40:58.478Z,48.10
2022-11-26T10:43:26.839Z,50.80
2022-11-26T10:45:56.193Z,44.30
2022-11-26T10:48:30.399Z,47.90
2022-11-26T10:51:02.490Z,49.50
2022-11-26T10:53:35.978Z,47.70
2022-11-26T10:56:07.724Z,48.40
2022-11-26T10:58:43.936Z,51.60
2022-11-26T11:01:15.551Z,48.50
2022-11-26T11:04:13.895Z,51.20
2022-11-26T11:06:44.193Z,54.40
2022-11-26T11:09:34.384Z,48.10
2022-11-26T11:12:11.651Z,49.40
2022-11-26T11:14:43.319Z,48.50
2022-11-26T11:17:25.432Z,51.90
2022-11-26T11:19:53.874Z,50.60
2022-11-26T11:22:22.749Z,49.30
2022-11-26T11:24:51.020Z,49.70
2022-11-26T11:27:47.264Z,48.70
2022-11-26T11:30:27.139Z,46.50
2022-11-26T11:32:57.351Z,44.20
2022-11-26T11:35:30.693Z,50.90
2022-11-26T11:37:59.686Z,49.90
2022-11-26T11:40:31.199Z,49.00
2022-11-26T11:43:02.725Z,50.70
2022-11-26T11:45:40.916Z,57.30
2022-11-26T11:48:27.411Z,50.60
2022-11-26T11:51:11.377Z,52.40
2022-11-26T11:53:44.824Z,53.20
2022-11-26T11:56:37.028Z,55.00
2022-11-26T12:00:09.648Z,52.30
2022-11-26T12:02:43.606Z,50.90
2022-11-26T12:05:32.396Z,54.30
2022-11-26T12:08:21.673Z,54.60
2022-11-26T12:11:17.903Z,57.40
2022-11-26T12:13:50.179Z,57.10
2022-11-26T12:16:22.364Z,58.20
2022-11-26T12:19:13.222Z,55.60
2022-11-26T12:21:46.008Z,53.90
2022-11-26T12:24:25.749Z,49.30
2022-11-26T12:27:02.908Z,52.20
2022-11-26T12:29:39.296Z,51.70
2022-11-26T12:32:20.275Z,54.50
2022-11-26T12:34:52.954Z,56.80
2022-11-26T12:37:27.472Z,57.60
2022-11-26T12:40:26.056Z,57.10
2022-11-26T12:42:57.304Z,55.50
2022-11-26T12:45:38.264Z,56.30
2022-11-26T12:48:24.593Z,59.90
2022-11-26T12:51:08.225Z,64.20
2022-11-26T12:53:47.290Z,71.40
2022-11-26T12:56:29.029Z,67.00
2022-11-26T12:59:08.333Z,79.60
2022-11-26T13:01:37.028Z,77.20
2022-11-26T13:04:36.204Z,67.30
2022-11-26T13:07:16.316Z,63.00
2022-11-26T13:10:13.245Z,64.30
2022-11-26T13:13:00.368Z,60.90
2022-11-26T13:15:39.535Z,55.70
2022-11-26T13:18:27.877Z,70.00
2022-11-26T13:21:19.973Z,68.90
2022-11-26T13:24:17.408Z,82.80
2022-11-26T13:27:08.416Z,71.00
2022-11-26T13:30:01.694Z,71.80
2022-11-26T13:33:14.908Z,68.90
2022-11-26T13:36:25.012Z,69.30
2022-11-26T13:39:17.337Z,60.10
2022-11-26T13:41:54.654Z,57.20
2022-11-26T13:44:43.632Z,60.70
2022-11-26T13:47:29.715Z,57.80
2022-11-26T13:50:14.834Z,57.40
2022-11-26T13:52:57.459Z,52.60
2022-11-26T13:55:46.207Z,60.00
2022-11-26T13:58:25.513Z,63.00
2022-11-26T14:00:54.216Z,57.90
2022-11-26T14:03:55.628Z,57.30
2022-11-26T14:06:24.441Z,61.00
2022-11-26T14:08:54.570Z,63.60
2022-11-26T14:11:41.492Z,66.30
2022-11-26T14:14:25.354Z,65.50
2022-11-26T14:17:03.080Z,64.10
2022-11-26T14:19:40.743Z,63.50
2022-11-26T14:22:12.080Z,66.40
2022-11-26T14:24:49.641Z,62.00
2022-11-26T14:27:24.453Z,60.00
2022-11-26T14:29:55.943Z,55.00
2022-11-26T14:32:27.089Z,59.20
2022-11-26T14:34:57.535Z,60.80
2022-11-26T14:37:29.124Z,51.80
2022-11-26T14:40:05.921Z,49.80
2022-11-26T14:42:34.336Z,53.00
2022-11-26T14:45:25.751Z,53.00
2022-11-26T14:47:54.538Z,47.80
2022-11-26T14:50:24.669Z,51.10
2022-11-26T14:53:00.639Z,49.30
2022-11-26T14:55:30.744Z,47.50
2022-11-26T14:58:17.999Z,46.50
2022-11-26T15:01:02.439Z,51.30
2022-11-26T15:03:30.778Z,54.70
2022-11-26T15:05:59.192Z,54.00
2022-11-26T15:08:28.340Z,52.70
2022-11-26T15:10:59.725Z,54.10
2022-11-26T15:13:46.249Z,53.50
2022-11-26T15:16:38.846Z,52.10
2022-11-26T15:19:19.073Z,51.40
2022-11-26T15:21:49.305Z,53.70
2022-11-26T15:24:18.799Z,54.60
2022-11-26T15:26:48.242Z,56.20
2022-11-26T15:29:28.288Z,56.90
2022-11-26T15:31:57.159Z,54.40
2022-11-26T15:34:26.977Z,59.90
2022-11-26T15:36:55.324Z,58.70
2022-11-26T15:39:29.701Z,55.00
2022-11-26T15:42:04.863Z,56.10
2022-11-26T15:44:42.090Z,59.20
2022-11-26T15:47:22.993Z,58.50
2022-11-26T15:49:55.666Z,56.30
2022-11-26T15:52:27.664Z,57.70
2022-11-26T15:55:12.936Z,59.30
2022-11-26T15:57:42.422Z,59.20
2022-11-26T16:00:32.416Z,61.20
2022-11-26T16:03:00.992Z,66.10
2022-11-26T16:05:35.943Z,73.50
2022-11-26T16:08:27.445Z,69.50
2022-11-26T16:10:57.973Z,65.40
2022-11-26T16:13:33.404Z,63.40
2022-11-26T16:16:04.212Z,68.80
2022-11-26T16:18:43.086Z,65.50
2022-11-26T16:21:14.192Z,71.10
2022-11-26T16:23:43.056Z,68.50
2022-11-26T16:26:20.477Z,69.10
2022-11-26T16:28:48.833Z,68.60
2022-11-26T16:31:18.162Z,64.40
2022-11-26T16:33:46.739Z,66.70
2022-11-26T16:36:27.164Z,70.90
2022-11-26T16:38:55.340Z,64.90
2022-11-26T16:41:23.742Z,61.70
2022-11-26T16:43:51.990Z,60.60
2022-11-26T16:46:24.201Z,59.90
2022-11-26T16:48:52.636Z,63.30
2022-11-26T16:51:22.161Z,66.00
2022-11-26T16:53:50.233Z,70.90
2022-11-26T16:56:25.645Z,70.40
2022-11-26T16:58:54.990Z,68.40
2022-11-26T17:01:25.363Z,69.90
2022-11-26T17:03:53.488Z,62.70
2022-11-26T17:06:31.638Z,59.50
2022-11-26T17:09:01.270Z,54.40
2022-11-26T17:11:29.464Z,54.80
2022-11-26T17:13:57.609Z,52.70
2022-11-26T17:16:26.435Z,49.90
2022-11-26T17:18:54.775Z,50.00
2022-11-26T17:21:22.954Z,48.90
2022-11-26T17:23:50.997Z,47.00
2022-11-26T17:26:24.276Z,44.80
2022-11-26T17:28:52.452Z,49.70
2022-11-26T17:31:20.717Z,53.30
2022-11-26T17:33:50.156Z,67.60
2022-11-26T17:36:21.097Z,64.30
2022-11-26T17:38:50.007Z,62.50
2022-11-26T17:41:18.916Z,64.20
2022-11-26T17:43:47.155Z,72.70
2022-11-26T17:46:19.582Z,72.60
2022-11-26T17:48:49.644Z,77.90
2022-11-26T17:51:18.275Z,64.40
2022-11-26T17:53:46.557Z,62.60
2022-11-26T17:56:21.794Z,59.20
2022-11-26T17:58:50.983Z,60.20
2022-11-26T18:01:20.524Z,57.50
2022-11-26T18:03:48.658Z,56.40
2022-11-26T18:06:21.013Z,55.80
2022-11-26T18:08:49.212Z,51.80
2022-11-26T18:11:19.291Z,54.60
2022-11-26T18:13:52.724Z,55.70
2022-11-26T18:16:21.785Z,55.70
2022-11-26T18:18:49.933Z,55.80
2022-11-26T18:21:18.007Z,57.80
2022-11-26T18:23:48.332Z,54.70
2022-11-26T18:26:19.573Z,59.10
2022-11-26T18:28:47.641Z,60.40
2022-11-26T18:31:28.214Z,64.80
2022-11-26T18:34:02.934Z,67.70
2022-11-26T18:36:31.212Z,71.90
2022-11-26T18:38:59.277Z,75.70
2022-11-26T18:41:27.475Z,76.10
2022-11-26T18:43:55.546Z,65.50
2022-11-26T18:46:23.751Z,72.00
2022-11-26T18:48:52.321Z,74.30
2022-11-26T18:51:20.353Z,69.60
2022-11-26T18:53:48.730Z,71.70
2022-11-26T18:56:19.323Z,73.90
2022-11-26T18:58:47.328Z,69.20
2022-11-26T19:01:20.875Z,69.80
2022-11-26T19:03:49.965Z,63.20
2022-11-26T19:06:21.474Z,63.10
2022-11-26T19:08:51.235Z,61.90
2022-11-26T19:11:24.014Z,64.70
2022-11-26T19:13:52.240Z,66.20
2022-11-26T19:16:21.477Z,65.60
2022-11-26T19:18:50.296Z,62.30
2022-11-26T19:21:29.688Z,65.70
2022-11-26T19:24:00.744Z,65.40
2022-11-26T19:26:29.331Z,64.30
2022-11-26T19:29:02.165Z,67.60
2022-11-26T19:31:34.953Z,68.80
2022-11-26T19:34:10.091Z,65.00
2022-11-26T19:36:38.360Z,66.10
2022-11-26T19:39:07.740Z,64.40
2022-11-26T19:41:35.837Z,65.20
2022-11-26T19:44:07.135Z,67.90
2022-11-26T19:46:38.418Z,69.70
2022-11-26T19:49:07.483Z,74.60
2022-11-26T19:51:35.688Z,71.00
2022-11-26T19:54:05.093Z,71.50
2022-11-26T19:56:34.361Z,70.90
2022-11-26T19:59:03.218Z,70.10
2022-11-26T20:01:34.379Z,71.80
2022-11-26T20:04:06.212Z,70.90
2022-11-26T20:06:35.475Z,71.00
2022-11-26T20:09:06.124Z,73.20
2022-11-26T20:11:40.364Z,72.20
2022-11-26T20:14:12.094Z,75.50
2022-11-26T20:16:44.039Z,69.80
2022-11-26T20:19:13.366Z,68.50
2022-11-26T20:21:41.513Z,67.40
2022-11-26T20:24:14.547Z,70.40
2022-11-26T20:26:45.638Z,76.20
2022-11-26T20:29:16.854Z,69.80
2022-11-26T20:31:47.679Z,65.80
2022-11-26T20:34:18.775Z,65.70
2022-11-26T20:36:47.649Z,64.30
2022-11-26T20:39:19.049Z,65.20
2022-11-26T20:41:47.889Z,69.40
2022-11-26T20:44:16.943Z,70.50
2022-11-26T20:46:45.055Z,66.50
2022-11-26T20:49:13.229Z,65.60
2022-11-26T20:51:41.413Z,69.60
2022-11-26T20:54:09.572Z,65.10
2022-11-26T20:56:38.248Z,67.80
2022-11-26T20:59:09.555Z,59.50
2022-11-26T21:01:39.089Z,59.60
2022-11-26T21:04:07.320Z,57.80
2022-11-26T21:06:35.971Z,60.10
2022-11-26T21:09:06.625Z,59.00
2022-11-26T21:11:34.850Z,59.10
2022-11-26T21:14:03.586Z,57.40
2022-11-26T21:16:33.049Z,57.40
2022-11-26T21:19:01.717Z,58.00
2022-11-26T21:21:30.642Z,59.80
2022-11-26T21:23:59.220Z,57.90
2022-11-26T21:26:27.650Z,64.30
2022-11-26T21:28:58.328Z,62.60
2022-11-26T21:31:29.164Z,61.10
2022-11-26T21:34:02.604Z,62.60
2022-11-26T21:36:33.197Z,67.70
2022-11-26T21:39:02.355Z,65.80
2022-11-26T21:41:33.771Z,62.60
2022-11-26T21:44:04.084Z,64.50
2022-11-26T21:46:38.313Z,63.90
2022-11-26T21:49:08.254Z,64.00
2022-11-26T21:51:36.564Z,62.20
2022-11-26T21:54:05.515Z,62.40
2022-11-26T21:56:33.850Z,64.30
2022-11-26T21:59:02.311Z,62.30
2022-11-26T22:01:36.070Z,60.90
2022-11-26T22:04:08.602Z,55.70
2022-11-26T22:06:36.991Z,55.00
2022-11-26T22:09:06.158Z,56.00
2022-11-26T22:11:38.301Z,56.60
2022-11-26T22:14:07.869Z,55.80
2022-11-26T22:16:36.289Z,55.20
2022-11-26T22:19:05.790Z,56.70
2022-11-26T22:21:36.955Z,56.90
2022-11-26T22:24:06.343Z,60.80
2022-11-26T22:26:34.738Z,58.90
2022-11-26T22:29:03.795Z,61.70
2022-11-26T22:31:34.624Z,67.70
2022-11-26T22:34:07.756Z,67.90
2022-11-26T22:36:36.913Z,73.70
2022-11-26T22:39:07.171Z,73.70
2022-11-26T22:41:35.242Z,69.40
2022-11-26T22:44:03.427Z,66.00
2022-11-26T22:46:34.393Z,64.40
2022-11-26T22:49:03.217Z,62.30
2022-11-26T22:51:32.849Z,64.60
2022-11-26T22:54:03.895Z,62.60
2022-11-26T22:56:32.372Z,59.40
2022-11-26T22:59:01.716Z,62.10
2022-11-26T23:01:32.331Z,63.90
2022-11-26T23:04:03.857Z,69.10
2022-11-26T23:06:34.385Z,62.80
2022-11-26T23:09:05.014Z,65.60
2022-11-26T23:11:36.470Z,68.30
2022-11-26T23:14:07.543Z,65.50
2022-11-26T23:16:37.265Z,70.90
2022-11-26T23:19:06.359Z,69.20
2022-11-26T23:21:40.036Z,70.00
2022-11-26T23:24:09.073Z,65.40
2022-11-26T23:26:39.322Z,66.40
2022-11-26T23:29:08.445Z,68.30
2022-11-26T23:31:39.378Z,66.90
2022-11-26T23:34:08.628Z,67.70
2022-11-26T23:36:37.816Z,66.60
2022-11-26T23:39:08.887Z,62.40
2022-11-26T23:41:37.283Z,66.00
2022-11-26T23:44:05.472Z,67.40
2022-11-26T23:46:37.804Z,71.40
2022-11-26T23:49:05.877Z,71.90
2022-11-26T23:51:34.974Z,70.70
2022-11-26T23:54:03.452Z,73.00
2022-11-26T23:56:33.421Z,70.90
2022-11-26T23:59:04.508Z,69.90
